MMVA/VSA METAR and TAF weather

Enter ICAO airport designator
Station Type Date Time Source
MMVA METAR 2018/12/13 02:50 UTC NOAA

MMVA 130250Z 00000KT 7SM SKC 20/16 A2999 RMK SLP153 57007 993


Station Type Date Time Source
MMVA Decoded METAR 2018/12/13 02:50 UTC NOAA

Villahermosa , Mexico (MMVA) 18-00N 092-49W
Dec 12, 2018 - 09:50 PM EST / 2018.12.13 0250 UTC
Wind: Calm:0
Visibility: 7 mile(s):0
Sky conditions: clear
Temperature: 68 F (20 C)
Dew Point: 60 F (16 C)
Relative Humidity: 77%
Pressure (altimeter): 29.99 in. Hg (1015 hPa)
Pressure tendency: 0.02 inches (0.7 hPa) lower than three hours ago
ob: MMVA 130250Z 00000KT 7SM SKC 20/16 A2999 RMK SLP153 57007 993
cycle: 3

Station Type Date Time Source
MMVA TAF 2018/12/13 06:16 UTC NOAA

TAF MMVA 130510Z 1306/1406 00000KT 5SM HZ SCT020
TEMPO 1311/1315 3SM BR HZ BKN010
FM131800 12012KT P6SM SCT015 BKN080
FM140500 00000KT 6SM HZ SCT020


Example: see airport list